sensor_id;sensor_type;location;lat;lon;timestamp;pressure;altitude;pressure_sealevel;temperature;humidity
68873;BME280;55907;50.806;12.882;2023-04-19T00:01:46;981.6;;;8.8;98.4
68873;BME280;55907;50.806;12.882;2023-04-19T00:04:47;981.6;;;8.7;98.9
68873;BME280;55907;50.806;12.882;2023-04-19T00:07:49;981.6;;;8.7;99.1
68873;BME280;55907;50.806;12.882;2023-04-19T00:10:50;981.5;;;8.7;99.3
68873;BME280;55907;50.806;12.882;2023-04-19T00:13:52;981.5;;;8.8;99.0
68873;BME280;55907;50.806;12.882;2023-04-19T00:16:53;981.5;;;8.8;98.4
68873;BME280;55907;50.806;12.882;2023-04-19T00:19:55;981.5;;;8.9;98.0
68873;BME280;55907;50.806;12.882;2023-04-19T00:22:56;981.4;;;8.8;97.6
68873;BME280;55907;50.806;12.882;2023-04-19T00:26:01;981.4;;;8.8;97.8
68873;BME280;55907;50.806;12.882;2023-04-19T00:29:00;981.4;;;8.8;97.2
68873;BME280;55907;50.806;12.882;2023-04-19T00:32:01;981.3;;;8.8;96.7
68873;BME280;55907;50.806;12.882;2023-04-19T00:35:03;981.3;;;8.8;96.4
68873;BME280;55907;50.806;12.882;2023-04-19T00:38:04;981.3;;;8.8;96.0
68873;BME280;55907;50.806;12.882;2023-04-19T00:41:06;981.2;;;8.8;95.7
68873;BME280;55907;50.806;12.882;2023-04-19T00:44:07;981.2;;;8.8;95.3
68873;BME280;55907;50.806;12.882;2023-04-19T00:47:09;981.2;;;8.7;95.3
68873;BME280;55907;50.806;12.882;2023-04-19T00:50:11;981.1;;;8.7;95.3
68873;BME280;55907;50.806;12.882;2023-04-19T00:53:12;981.1;;;8.7;95.5
68873;BME280;55907;50.806;12.882;2023-04-19T00:56:14;981.1;;;8.8;95.2
68873;BME280;55907;50.806;12.882;2023-04-19T00:59:16;981.1;;;8.7;95.1
68873;BME280;55907;50.806;12.882;2023-04-19T01:02:17;981.1;;;8.6;95.1
68873;BME280;55907;50.806;12.882;2023-04-19T01:05:18;981.0;;;8.6;95.2
68873;BME280;55907;50.806;12.882;2023-04-19T01:08:19;981.0;;;8.6;95.2
68873;BME280;55907;50.806;12.882;2023-04-19T01:11:21;981.0;;;8.6;95.1
68873;BME280;55907;50.806;12.882;2023-04-19T01:14:22;981.0;;;8.5;94.9
68873;BME280;55907;50.806;12.882;2023-04-19T01:17:25;981.0;;;8.5;94.8
68873;BME280;55907;50.806;12.882;2023-04-19T01:20:25;981.0;;;8.4;94.8
68873;BME280;55907;50.806;12.882;2023-04-19T01:23:27;981.0;;;8.4;94.6
68873;BME280;55907;50.806;12.882;2023-04-19T01:26:29;981.0;;;8.3;94.2
68873;BME280;55907;50.806;12.882;2023-04-19T01:29:30;980.9;;;8.3;94.4
68873;BME280;55907;50.806;12.882;2023-04-19T01:32:32;980.9;;;8.3;94.5
68873;BME280;55907;50.806;12.882;2023-04-19T01:35:33;980.9;;;8.3;94.6
68873;BME280;55907;50.806;12.882;2023-04-19T01:38:35;980.9;;;8.3;94.6
68873;BME280;55907;50.806;12.882;2023-04-19T01:41:36;980.9;;;8.3;94.7
68873;BME280;55907;50.806;12.882;2023-04-19T01:44:38;980.8;;;8.2;94.9
68873;BME280;55907;50.806;12.882;2023-04-19T01:47:39;980.8;;;8.1;95.5
68873;BME280;55907;50.806;12.882;2023-04-19T01:50:41;980.8;;;8.0;96.2
68873;BME280;55907;50.806;12.882;2023-04-19T01:53:42;980.8;;;7.9;96.4
68873;BME280;55907;50.806;12.882;2023-04-19T01:56:44;980.8;;;7.9;97.0
68873;BME280;55907;50.806;12.882;2023-04-19T01:59:45;980.8;;;8.0;97.0
68873;BME280;55907;50.806;12.882;2023-04-19T02:02:47;980.8;;;8.0;96.5
68873;BME280;55907;50.806;12.882;2023-04-19T02:05:48;980.8;;;7.9;96.7
68873;BME280;55907;50.806;12.882;2023-04-19T02:08:50;980.7;;;7.8;97.1
68873;BME280;55907;50.806;12.882;2023-04-19T02:14:53;980.6;;;7.8;96.4
68873;BME280;55907;50.806;12.882;2023-04-19T02:17:55;980.7;;;7.8;96.2
68873;BME280;55907;50.806;12.882;2023-04-19T02:20:57;980.7;;;7.8;96.6
68873;BME280;55907;50.806;12.882;2023-04-19T02:23:58;980.7;;;7.8;96.9
68873;BME280;55907;50.806;12.882;2023-04-19T02:26:59;980.7;;;7.8;96.9
68873;BME280;55907;50.806;12.882;2023-04-19T02:30:01;980.7;;;7.8;97.1
68873;BME280;55907;50.806;12.882;2023-04-19T02:33:02;980.7;;;7.7;97.0
68873;BME280;55907;50.806;12.882;2023-04-19T02:36:04;980.7;;;7.7;97.1
68873;BME280;55907;50.806;12.882;2023-04-19T02:39:05;980.7;;;7.6;97.4
68873;BME280;55907;50.806;12.882;2023-04-19T02:42:07;980.7;;;7.7;97.6
68873;BME280;55907;50.806;12.882;2023-04-19T02:45:09;980.6;;;7.7;96.9
68873;BME280;55907;50.806;12.882;2023-04-19T02:48:10;980.6;;;7.6;96.8
68873;BME280;55907;50.806;12.882;2023-04-19T02:51:14;980.6;;;7.5;96.5
68873;BME280;55907;50.806;12.882;2023-04-19T02:54:13;980.6;;;7.4;96.6
68873;BME280;55907;50.806;12.882;2023-04-19T02:57:15;980.5;;;7.3;97.1
68873;BME280;55907;50.806;12.882;2023-04-19T03:00:16;980.6;;;7.4;96.7
68873;BME280;55907;50.806;12.882;2023-04-19T03:03:18;980.5;;;7.3;96.8
68873;BME280;55907;50.806;12.882;2023-04-19T03:06:19;980.5;;;7.3;95.9
68873;BME280;55907;50.806;12.882;2023-04-19T03:09:21;980.4;;;7.3;96.1
68873;BME280;55907;50.806;12.882;2023-04-19T03:12:22;980.4;;;7.4;96.0
68873;BME280;55907;50.806;12.882;2023-04-19T03:15:24;980.4;;;7.4;95.0
68873;BME280;55907;50.806;12.882;2023-04-19T03:18:25;980.3;;;7.3;94.7
68873;BME280;55907;50.806;12.882;2023-04-19T03:21:27;980.3;;;7.2;94.5
68873;BME280;55907;50.806;12.882;2023-04-19T03:24:29;980.3;;;7.1;94.4
68873;BME280;55907;50.806;12.882;2023-04-19T03:27:33;980.3;;;6.9;94.3
68873;BME280;55907;50.806;12.882;2023-04-19T03:30:32;980.3;;;6.8;94.6
68873;BME280;55907;50.806;12.882;2023-04-19T03:33:33;980.2;;;6.8;94.7
68873;BME280;55907;50.806;12.882;2023-04-19T03:36:35;980.3;;;6.8;94.9
68873;BME280;55907;50.806;12.882;2023-04-19T03:39:36;980.2;;;6.7;94.5
68873;BME280;55907;50.806;12.882;2023-04-19T03:42:38;980.2;;;6.6;94.8
68873;BME280;55907;50.806;12.882;2023-04-19T03:45:39;980.2;;;6.7;94.9
68873;BME280;55907;50.806;12.882;2023-04-19T03:48:41;980.2;;;6.7;95.3
68873;BME280;55907;50.806;12.882;2023-04-19T03:51:42;980.2;;;6.6;94.5
68873;BME280;55907;50.806;12.882;2023-04-19T03:54:44;980.1;;;6.6;94.5
68873;BME280;55907;50.806;12.882;2023-04-19T03:57:45;980.2;;;6.5;94.8
68873;BME280;55907;50.806;12.882;2023-04-19T04:00:47;980.1;;;6.4;95.5
68873;BME280;55907;50.806;12.882;2023-04-19T04:03:48;980.1;;;6.4;95.8
68873;BME280;55907;50.806;12.882;2023-04-19T04:06:50;980.1;;;6.3;96.0
68873;BME280;55907;50.806;12.882;2023-04-19T04:09:52;980.1;;;6.2;96.4
68873;BME280;55907;50.806;12.882;2023-04-19T04:12:53;980.1;;;6.2;96.9
68873;BME280;55907;50.806;12.882;2023-04-19T04:15:55;980.0;;;6.3;96.8
68873;BME280;55907;50.806;12.882;2023-04-19T04:21:58;979.9;;;6.4;96.4
68873;BME280;55907;50.806;12.882;2023-04-19T04:24:59;980.0;;;6.3;96.4
68873;BME280;55907;50.806;12.882;2023-04-19T04:28:01;980.0;;;6.3;96.8
68873;BME280;55907;50.806;12.882;2023-04-19T04:31:02;980.0;;;6.3;96.5
68873;BME280;55907;50.806;12.882;2023-04-19T04:34:04;980.0;;;6.2;97.0
68873;BME280;55907;50.806;12.882;2023-04-19T04:37:05;980.0;;;6.2;97.5
68873;BME280;55907;50.806;12.882;2023-04-19T04:40:07;980.0;;;6.1;97.3
68873;BME280;55907;50.806;12.882;2023-04-19T04:43:08;980.0;;;6.1;97.4
68873;BME280;55907;50.806;12.882;2023-04-19T04:46:10;979.9;;;6.1;97.7
68873;BME280;55907;50.806;12.882;2023-04-19T04:49:11;980.0;;;6.2;97.4
68873;BME280;55907;50.806;12.882;2023-04-19T04:52:13;979.9;;;6.1;97.5
68873;BME280;55907;50.806;12.882;2023-04-19T04:55:15;979.9;;;6.2;97.7
68873;BME280;55907;50.806;12.882;2023-04-19T04:58:16;979.9;;;6.2;97.5
68873;BME280;55907;50.806;12.882;2023-04-19T05:01:18;979.9;;;6.1;97.3
68873;BME280;55907;50.806;12.882;2023-04-19T05:04:19;980.0;;;6.0;97.8
68873;BME280;55907;50.806;12.882;2023-04-19T05:07:21;980.0;;;5.8;99.1
68873;BME280;55907;50.806;12.882;2023-04-19T05:10:22;979.9;;;5.8;99.8
68873;BME280;55907;50.806;12.882;2023-04-19T05:13:24;979.9;;;5.8;99.4
68873;BME280;55907;50.806;12.882;2023-04-19T05:16:26;980.0;;;5.8;98.6
68873;BME280;55907;50.806;12.882;2023-04-19T05:19:27;980.1;;;5.6;97.1
68873;BME280;55907;50.806;12.882;2023-04-19T05:22:28;980.0;;;5.6;97.3
68873;BME280;55907;50.806;12.882;2023-04-19T05:25:30;980.1;;;5.6;97.4
68873;BME280;55907;50.806;12.882;2023-04-19T05:28:32;980.0;;;5.6;95.9
68873;BME280;55907;50.806;12.882;2023-04-19T05:31:33;980.0;;;5.7;95.6
68873;BME280;55907;50.806;12.882;2023-04-19T05:34:35;980.0;;;5.6;93.7
68873;BME280;55907;50.806;12.882;2023-04-19T05:37:36;980.0;;;5.5;93.1
68873;BME280;55907;50.806;12.882;2023-04-19T05:40:38;979.9;;;5.4;94.1
68873;BME280;55907;50.806;12.882;2023-04-19T05:43:39;980.0;;;5.5;94.0
68873;BME280;55907;50.806;12.882;2023-04-19T05:46:41;980.0;;;5.6;93.5
68873;BME280;55907;50.806;12.882;2023-04-19T05:49:42;980.0;;;5.5;92.4
68873;BME280;55907;50.806;12.882;2023-04-19T05:52:44;980.0;;;5.4;92.3
68873;BME280;55907;50.806;12.882;2023-04-19T05:55:45;980.0;;;5.4;92.1
68873;BME280;55907;50.806;12.882;2023-04-19T05:58:47;980.0;;;5.4;90.9
68873;BME280;55907;50.806;12.882;2023-04-19T06:01:48;980.0;;;5.4;90.5
68873;BME280;55907;50.806;12.882;2023-04-19T06:04:50;980.0;;;5.4;90.3
68873;BME280;55907;50.806;12.882;2023-04-19T06:10:53;980.1;;;5.4;89.6
68873;BME280;55907;50.806;12.882;2023-04-19T06:13:54;980.0;;;5.4;89.3
68873;BME280;55907;50.806;12.882;2023-04-19T06:16:56;980.0;;;5.3;88.2
68873;BME280;55907;50.806;12.882;2023-04-19T06:19:58;980.1;;;5.2;86.2
68873;BME280;55907;50.806;12.882;2023-04-19T06:22:59;980.1;;;5.3;87.0
68873;BME280;55907;50.806;12.882;2023-04-19T06:26:01;980.1;;;5.5;86.8
68873;BME280;55907;50.806;12.882;2023-04-19T06:29:02;980.0;;;5.9;84.5
68873;BME280;55907;50.806;12.882;2023-04-19T06:32:04;980.1;;;6.2;80.6
68873;BME280;55907;50.806;12.882;2023-04-19T06:35:06;980.1;;;6.2;79.1
68873;BME280;55907;50.806;12.882;2023-04-19T06:38:07;980.1;;;6.4;80.2
68873;BME280;55907;50.806;12.882;2023-04-19T06:41:08;980.1;;;6.5;78.2
68873;BME280;55907;50.806;12.882;2023-04-19T06:44:10;980.1;;;6.8;75.2
68873;BME280;55907;50.806;12.882;2023-04-19T06:47:11;980.2;;;7.0;75.8
68873;BME280;55907;50.806;12.882;2023-04-19T06:50:13;980.2;;;7.3;72.5
68873;BME280;55907;50.806;12.882;2023-04-19T06:53:14;980.0;;;7.4;73.5
68873;BME280;55907;50.806;12.882;2023-04-19T06:56:16;980.0;;;7.5;73.0
68873;BME280;55907;50.806;12.882;2023-04-19T06:59:19;980.0;;;7.4;70.1
68873;BME280;55907;50.806;12.882;2023-04-19T07:02:19;980.0;;;7.4;69.3
68873;BME280;55907;50.806;12.882;2023-04-19T07:05:20;980.1;;;7.6;66.6
68873;BME280;55907;50.806;12.882;2023-04-19T07:08:23;980.0;;;8.5;65.7
68873;BME280;55907;50.806;12.882;2023-04-19T07:11:24;980.0;;;9.2;63.1
68873;BME280;55907;50.806;12.882;2023-04-19T07:14:25;980.0;;;9.6;60.2
68873;BME280;55907;50.806;12.882;2023-04-19T07:17:26;980.0;;;9.6;61.0
68873;BME280;55907;50.806;12.882;2023-04-19T07:20:28;980.0;;;9.7;58.8
68873;BME280;55907;50.806;12.882;2023-04-19T07:23:30;980.0;;;9.6;57.9
68873;BME280;55907;50.806;12.882;2023-04-19T07:26:31;979.9;;;9.5;55.1
68873;BME280;55907;50.806;12.882;2023-04-19T07:29:33;979.9;;;9.5;55.7
68873;BME280;55907;50.806;12.882;2023-04-19T07:32:34;979.8;;;9.4;51.9
68873;BME280;55907;50.806;12.882;2023-04-19T07:35:37;979.8;;;9.6;51.9
68873;BME280;55907;50.806;12.882;2023-04-19T07:38:37;979.8;;;10.2;52.7
68873;BME280;55907;50.806;12.882;2023-04-19T07:41:39;979.8;;;10.5;50.7
68873;BME280;55907;50.806;12.882;2023-04-19T07:44:40;979.9;;;11.0;47.5
68873;BME280;55907;50.806;12.882;2023-04-19T07:47:41;979.9;;;12.0;45.0
68873;BME280;55907;50.806;12.882;2023-04-19T07:50:43;979.9;;;12.2;43.3
68873;BME280;55907;50.806;12.882;2023-04-19T07:53:45;979.9;;;12.0;43.2
68873;BME280;55907;50.806;12.882;2023-04-19T07:56:46;979.9;;;12.1;43.7
68873;BME280;55907;50.806;12.882;2023-04-19T07:59:47;979.9;;;11.9;45.6
68873;BME280;55907;50.806;12.882;2023-04-19T08:02:49;979.9;;;12.0;46.6
68873;BME280;55907;50.806;12.882;2023-04-19T08:05:50;979.9;;;12.4;43.1
68873;BME280;55907;50.806;12.882;2023-04-19T08:08:52;979.8;;;11.9;39.5
68873;BME280;55907;50.806;12.882;2023-04-19T08:11:53;979.8;;;11.8;42.3
68873;BME280;55907;50.806;12.882;2023-04-19T08:14:55;979.8;;;11.6;42.4
68873;BME280;55907;50.806;12.882;2023-04-19T08:17:56;979.8;;;11.4;43.0
68873;BME280;55907;50.806;12.882;2023-04-19T08:20:58;979.7;;;11.5;43.8
68873;BME280;55907;50.806;12.882;2023-04-19T08:23:59;979.7;;;11.7;42.5
68873;BME280;55907;50.806;12.882;2023-04-19T08:27:01;979.7;;;11.9;41.8
68873;BME280;55907;50.806;12.882;2023-04-19T08:30:03;979.8;;;12.0;41.5
68873;BME280;55907;50.806;12.882;2023-04-19T08:33:04;979.7;;;12.6;42.0
68873;BME280;55907;50.806;12.882;2023-04-19T08:36:06;979.7;;;13.2;39.6
68873;BME280;55907;50.806;12.882;2023-04-19T08:42:09;979.7;;;14.5;39.8
68873;BME280;55907;50.806;12.882;2023-04-19T08:45:10;979.6;;;15.0;36.9
68873;BME280;55907;50.806;12.882;2023-04-19T08:48:11;979.6;;;15.1;35.9
68873;BME280;55907;50.806;12.882;2023-04-19T08:51:14;979.6;;;15.4;34.6
68873;BME280;55907;50.806;12.882;2023-04-19T08:54:14;979.5;;;15.9;35.2
68873;BME280;55907;50.806;12.882;2023-04-19T08:57:15;979.5;;;16.7;33.3
68873;BME280;55907;50.806;12.882;2023-04-19T09:00:17;979.4;;;17.2;32.6
68873;BME280;55907;50.806;12.882;2023-04-19T09:03:18;979.4;;;17.7;32.7
68873;BME280;55907;50.806;12.882;2023-04-19T09:06:20;979.3;;;17.8;30.4
68873;BME280;55907;50.806;12.882;2023-04-19T09:09:23;979.3;;;17.2;32.0
68873;BME280;55907;50.806;12.882;2023-04-19T09:12:22;979.2;;;17.7;31.6
68873;BME280;55907;50.806;12.882;2023-04-19T09:15:34;979.2;;;18.2;30.9
68873;BME280;55907;50.806;12.882;2023-04-19T09:18:25;979.1;;;17.9;30.1
68873;BME280;55907;50.806;12.882;2023-04-19T09:21:27;979.1;;;18.3;30.0
68873;BME280;55907;50.806;12.882;2023-04-19T09:24:38;979.1;;;18.5;29.8
68873;BME280;55907;50.806;12.882;2023-04-19T09:27:31;979.1;;;18.8;30.3
68873;BME280;55907;50.806;12.882;2023-04-19T09:30:31;979.0;;;18.1;29.0
68873;BME280;55907;50.806;12.882;2023-04-19T09:33:34;979.1;;;17.1;30.4
68873;BME280;55907;50.806;12.882;2023-04-19T09:36:34;979.0;;;16.9;31.6
68873;BME280;55907;50.806;12.882;2023-04-19T09:39:35;978.9;;;16.6;31.5
68873;BME280;55907;50.806;12.882;2023-04-19T09:42:44;979.0;;;16.0;33.1
68873;BME280;55907;50.806;12.882;2023-04-19T09:45:39;978.9;;;15.9;34.2
68873;BME280;55907;50.806;12.882;2023-04-19T09:48:39;979.0;;;15.2;34.8
68873;BME280;55907;50.806;12.882;2023-04-19T09:51:42;979.0;;;14.7;36.9
68873;BME280;55907;50.806;12.882;2023-04-19T09:54:43;979.0;;;14.8;36.9
68873;BME280;55907;50.806;12.882;2023-04-19T09:57:44;979.0;;;15.3;35.7
68873;BME280;55907;50.806;12.882;2023-04-19T10:00:46;978.9;;;14.7;35.8
68873;BME280;55907;50.806;12.882;2023-04-19T10:03:48;978.9;;;14.3;37.4
68873;BME280;55907;50.806;12.882;2023-04-19T10:06:50;978.8;;;14.3;37.5
68873;BME280;55907;50.806;12.882;2023-04-19T10:09:50;978.8;;;14.6;37.0
68873;BME280;55907;50.806;12.882;2023-04-19T10:12:52;978.7;;;14.2;38.0
68873;BME280;55907;50.806;12.882;2023-04-19T10:15:53;978.6;;;14.1;37.5
68873;BME280;55907;50.806;12.882;2023-04-19T10:18:55;978.7;;;14.6;37.4
68873;BME280;55907;50.806;12.882;2023-04-19T10:21:56;978.7;;;14.9;36.4
68873;BME280;55907;50.806;12.882;2023-04-19T10:25:08;978.6;;;14.7;36.2
68873;BME280;55907;50.806;12.882;2023-04-19T10:27:59;978.6;;;14.1;38.2
68873;BME280;55907;50.806;12.882;2023-04-19T10:31:01;978.6;;;14.3;38.0
68873;BME280;55907;50.806;12.882;2023-04-19T10:34:04;978.6;;;14.2;38.5
68873;BME280;55907;50.806;12.882;2023-04-19T10:37:03;978.6;;;14.2;38.0
68873;BME280;55907;50.806;12.882;2023-04-19T10:40:05;978.5;;;14.0;37.7
68873;BME280;55907;50.806;12.882;2023-04-19T10:43:14;978.5;;;14.5;38.8
68873;BME280;55907;50.806;12.882;2023-04-19T10:46:09;978.5;;;15.1;37.9
68873;BME280;55907;50.806;12.882;2023-04-19T10:49:09;978.4;;;15.1;38.0
68873;BME280;55907;50.806;12.882;2023-04-19T10:52:28;978.4;;;14.7;36.6
68873;BME280;55907;50.806;12.882;2023-04-19T10:55:14;978.3;;;14.9;37.2
68873;BME280;55907;50.806;12.882;2023-04-19T10:58:13;978.2;;;15.4;37.3
68873;BME280;55907;50.806;12.882;2023-04-19T11:01:32;978.1;;;15.7;35.9
68873;BME280;55907;50.806;12.882;2023-04-19T11:04:18;978.2;;;15.4;36.6
68873;BME280;55907;50.806;12.882;2023-04-19T11:07:18;978.1;;;14.6;37.5
68873;BME280;55907;50.806;12.882;2023-04-19T11:10:28;978.1;;;14.5;38.5
68873;BME280;55907;50.806;12.882;2023-04-19T11:13:21;978.0;;;14.3;38.8
68873;BME280;55907;50.806;12.882;2023-04-19T11:16:22;978.0;;;13.6;39.7
68873;BME280;55907;50.806;12.882;2023-04-19T11:19:24;978.0;;;12.5;41.4
68873;BME280;55907;50.806;12.882;2023-04-19T11:22:29;978.1;;;12.0;43.2
68873;BME280;55907;50.806;12.882;2023-04-19T11:25:27;978.0;;;11.8;43.7
68873;BME280;55907;50.806;12.882;2023-04-19T11:28:28;977.9;;;12.0;41.5
68873;BME280;55907;50.806;12.882;2023-04-19T11:31:31;977.9;;;12.4;40.3
68873;BME280;55907;50.806;12.882;2023-04-19T11:34:34;977.8;;;12.2;41.2
68873;BME280;55907;50.806;12.882;2023-04-19T11:37:33;977.8;;;11.8;42.4
68873;BME280;55907;50.806;12.882;2023-04-19T11:40:34;977.8;;;11.3;42.3
68873;BME280;55907;50.806;12.882;2023-04-19T11:43:36;977.8;;;11.2;42.0
68873;BME280;55907;50.806;12.882;2023-04-19T11:46:37;977.8;;;11.2;42.5
68873;BME280;55907;50.806;12.882;2023-04-19T11:49:38;977.7;;;11.3;43.3
68873;BME280;55907;50.806;12.882;2023-04-19T11:52:40;977.8;;;11.1;45.2
68873;BME280;55907;50.806;12.882;2023-04-19T11:55:46;977.7;;;11.0;46.0
68873;BME280;55907;50.806;12.882;2023-04-19T11:58:44;977.7;;;11.1;44.9
68873;BME280;55907;50.806;12.882;2023-04-19T12:01:45;977.5;;;11.3;44.8
68873;BME280;55907;50.806;12.882;2023-04-19T12:04:46;977.5;;;11.2;43.8
68873;BME280;55907;50.806;12.882;2023-04-19T12:07:58;977.5;;;11.2;45.3
68873;BME280;55907;50.806;12.882;2023-04-19T12:14:08;977.5;;;11.2;44.3
68873;BME280;55907;50.806;12.882;2023-04-19T12:17:06;977.4;;;11.8;43.8
68873;BME280;55907;50.806;12.882;2023-04-19T12:19:54;977.4;;;12.1;43.2
68873;BME280;55907;50.806;12.882;2023-04-19T12:22:55;977.3;;;11.7;44.1
68873;BME280;55907;50.806;12.882;2023-04-19T12:28:59;977.3;;;11.2;45.0
68873;BME280;55907;50.806;12.882;2023-04-19T12:32:00;977.3;;;11.2;44.5
68873;BME280;55907;50.806;12.882;2023-04-19T12:35:01;977.3;;;11.5;45.4
68873;BME280;55907;50.806;12.882;2023-04-19T12:38:03;977.3;;;11.4;46.4
68873;BME280;55907;50.806;12.882;2023-04-19T12:41:04;977.4;;;11.0;46.8
68873;BME280;55907;50.806;12.882;2023-04-19T12:44:06;977.3;;;10.6;48.2
68873;BME280;55907;50.806;12.882;2023-04-19T12:47:07;977.2;;;10.8;46.3
68873;BME280;55907;50.806;12.882;2023-04-19T12:50:09;977.1;;;11.4;45.5
68873;BME280;55907;50.806;12.882;2023-04-19T12:53:10;977.1;;;11.5;45.8
68873;BME280;55907;50.806;12.882;2023-04-19T12:56:12;977.1;;;11.8;45.5
68873;BME280;55907;50.806;12.882;2023-04-19T12:59:13;977.0;;;11.8;45.8
68873;BME280;55907;50.806;12.882;2023-04-19T13:02:15;977.1;;;11.5;46.3
68873;BME280;55907;50.806;12.882;2023-04-19T13:05:16;977.2;;;11.1;47.8
68873;BME280;55907;50.806;12.882;2023-04-19T13:08:18;977.1;;;10.7;49.1
68873;BME280;55907;50.806;12.882;2023-04-19T13:11:19;977.1;;;10.6;50.8
68873;BME280;55907;50.806;12.882;2023-04-19T13:14:21;977.2;;;10.5;51.8
68873;BME280;55907;50.806;12.882;2023-04-19T13:17:22;977.3;;;10.2;51.9
68873;BME280;55907;50.806;12.882;2023-04-19T13:20:24;977.3;;;9.6;56.7
68873;BME280;55907;50.806;12.882;2023-04-19T13:23:25;977.4;;;9.0;59.3
68873;BME280;55907;50.806;12.882;2023-04-19T13:26:27;977.4;;;8.7;60.7
68873;BME280;55907;50.806;12.882;2023-04-19T13:29:28;977.3;;;8.5;61.6
68873;BME280;55907;50.806;12.882;2023-04-19T13:32:30;977.3;;;8.4;62.1
68873;BME280;55907;50.806;12.882;2023-04-19T13:35:31;977.2;;;8.5;62.2
68873;BME280;55907;50.806;12.882;2023-04-19T13:38:33;977.1;;;8.6;62.3
68873;BME280;55907;50.806;12.882;2023-04-19T13:41:35;977.1;;;8.7;62.7
68873;BME280;55907;50.806;12.882;2023-04-19T13:44:36;977.1;;;8.7;62.6
68873;BME280;55907;50.806;12.882;2023-04-19T13:47:38;977.1;;;8.8;61.9
68873;BME280;55907;50.806;12.882;2023-04-19T13:50:39;977.0;;;8.9;63.5
68873;BME280;55907;50.806;12.882;2023-04-19T13:53:41;977.0;;;9.0;61.2
68873;BME280;55907;50.806;12.882;2023-04-19T13:56:42;977.0;;;9.3;61.5
68873;BME280;55907;50.806;12.882;2023-04-19T13:59:44;976.9;;;9.7;60.3
68873;BME280;55907;50.806;12.882;2023-04-19T14:02:45;976.8;;;10.0;59.6
68873;BME280;55907;50.806;12.882;2023-04-19T14:05:47;976.8;;;10.5;57.8
68873;BME280;55907;50.806;12.882;2023-04-19T14:08:48;976.7;;;11.2;55.9
68873;BME280;55907;50.806;12.882;2023-04-19T14:11:50;976.6;;;11.5;55.2
68873;BME280;55907;50.806;12.882;2023-04-19T14:14:51;976.6;;;11.4;53.5
68873;BME280;55907;50.806;12.882;2023-04-19T14:17:53;976.8;;;10.9;55.6
68873;BME280;55907;50.806;12.882;2023-04-19T14:20:54;976.9;;;9.6;61.6
68873;BME280;55907;50.806;12.882;2023-04-19T14:23:56;976.8;;;8.4;67.0
68873;BME280;55907;50.806;12.882;2023-04-19T14:26:57;976.7;;;7.9;70.1
68873;BME280;55907;50.806;12.882;2023-04-19T14:29:59;976.6;;;7.7;72.0
68873;BME280;55907;50.806;12.882;2023-04-19T14:33:00;976.5;;;7.7;72.2
68873;BME280;55907;50.806;12.882;2023-04-19T14:36:03;976.5;;;7.8;72.6
68873;BME280;55907;50.806;12.882;2023-04-19T14:39:04;976.5;;;8.0;72.7
68873;BME280;55907;50.806;12.882;2023-04-19T14:42:05;976.6;;;8.2;72.2
68873;BME280;55907;50.806;12.882;2023-04-19T14:45:07;976.5;;;8.3;69.9
68873;BME280;55907;50.806;12.882;2023-04-19T14:48:08;976.5;;;8.4;69.3
68873;BME280;55907;50.806;12.882;2023-04-19T14:51:10;976.6;;;8.6;68.8
68873;BME280;55907;50.806;12.882;2023-04-19T14:54:11;976.5;;;8.7;67.6
68873;BME280;55907;50.806;12.882;2023-04-19T14:57:13;976.5;;;8.8;66.4
68873;BME280;55907;50.806;12.882;2023-04-19T15:00:15;976.6;;;9.1;64.6
68873;BME280;55907;50.806;12.882;2023-04-19T15:03:16;976.7;;;9.4;65.6
68873;BME280;55907;50.806;12.882;2023-04-19T15:06:17;976.6;;;9.5;65.8
68873;BME280;55907;50.806;12.882;2023-04-19T15:09:20;976.7;;;9.3;65.8
68873;BME280;55907;50.806;12.882;2023-04-19T15:12:20;976.7;;;9.0;66.2
68873;BME280;55907;50.806;12.882;2023-04-19T15:15:22;976.7;;;8.7;66.5
68873;BME280;55907;50.806;12.882;2023-04-19T15:18:23;976.8;;;8.4;70.3
68873;BME280;55907;50.806;12.882;2023-04-19T15:21:25;976.9;;;7.9;72.8
68873;BME280;55907;50.806;12.882;2023-04-19T15:24:26;976.8;;;7.3;74.5
68873;BME280;55907;50.806;12.882;2023-04-19T15:27:28;976.9;;;6.9;74.9
68873;BME280;55907;50.806;12.882;2023-04-19T15:30:30;976.9;;;6.7;73.8
68873;BME280;55907;50.806;12.882;2023-04-19T15:33:32;976.9;;;6.5;76.3
68873;BME280;55907;50.806;12.882;2023-04-19T15:36:33;977.0;;;6.4;79.0
68873;BME280;55907;50.806;12.882;2023-04-19T15:39:34;976.8;;;6.2;77.1
68873;BME280;55907;50.806;12.882;2023-04-19T15:42:36;976.7;;;6.1;76.9
68873;BME280;55907;50.806;12.882;2023-04-19T15:45:37;976.7;;;6.2;79.5
68873;BME280;55907;50.806;12.882;2023-04-19T15:48:39;976.7;;;6.2;76.6
68873;BME280;55907;50.806;12.882;2023-04-19T15:51:40;976.7;;;6.3;76.8
68873;BME280;55907;50.806;12.882;2023-04-19T15:54:42;976.8;;;6.3;78.5
68873;BME280;55907;50.806;12.882;2023-04-19T15:57:43;976.7;;;6.4;79.3
68873;BME280;55907;50.806;12.882;2023-04-19T16:00:45;976.8;;;6.4;78.4
68873;BME280;55907;50.806;12.882;2023-04-19T16:03:47;976.8;;;6.3;79.8
68873;BME280;55907;50.806;12.882;2023-04-19T16:06:48;976.9;;;6.1;81.7
68873;BME280;55907;50.806;12.882;2023-04-19T16:09:50;976.9;;;6.1;82.6
68873;BME280;55907;50.806;12.882;2023-04-19T16:15:53;976.9;;;6.3;82.3
68873;BME280;55907;50.806;12.882;2023-04-19T16:18:54;976.8;;;6.4;81.9
68873;BME280;55907;50.806;12.882;2023-04-19T16:21:56;976.9;;;6.5;80.6
68873;BME280;55907;50.806;12.882;2023-04-19T16:24:57;976.8;;;6.5;80.6
68873;BME280;55907;50.806;12.882;2023-04-19T16:27:59;976.8;;;6.6;80.1
68873;BME280;55907;50.806;12.882;2023-04-19T16:31:00;976.8;;;6.6;80.7
68873;BME280;55907;50.806;12.882;2023-04-19T16:34:02;976.8;;;6.7;80.0
68873;BME280;55907;50.806;12.882;2023-04-19T16:37:03;976.8;;;6.7;80.7
68873;BME280;55907;50.806;12.882;2023-04-19T16:40:07;976.8;;;6.6;80.7
68873;BME280;55907;50.806;12.882;2023-04-19T16:43:07;976.9;;;6.5;81.1
68873;BME280;55907;50.806;12.882;2023-04-19T16:46:08;976.9;;;6.4;81.9
68873;BME280;55907;50.806;12.882;2023-04-19T16:49:10;976.8;;;6.5;81.7
68873;BME280;55907;50.806;12.882;2023-04-19T16:52:11;976.8;;;6.4;82.3
68873;BME280;55907;50.806;12.882;2023-04-19T16:55:13;976.7;;;6.3;82.0
68873;BME280;55907;50.806;12.882;2023-04-19T16:58:14;976.7;;;6.2;83.1
68873;BME280;55907;50.806;12.882;2023-04-19T17:01:16;976.7;;;6.2;83.4
68873;BME280;55907;50.806;12.882;2023-04-19T17:04:17;976.6;;;6.2;83.7
68873;BME280;55907;50.806;12.882;2023-04-19T17:07:19;976.6;;;6.1;83.7
68873;BME280;55907;50.806;12.882;2023-04-19T17:10:20;976.6;;;6.0;84.4
68873;BME280;55907;50.806;12.882;2023-04-19T17:13:22;976.5;;;6.0;84.7
68873;BME280;55907;50.806;12.882;2023-04-19T17:16:24;976.5;;;5.9;85.0
68873;BME280;55907;50.806;12.882;2023-04-19T17:19:26;976.5;;;5.8;85.2
68873;BME280;55907;50.806;12.882;2023-04-19T17:22:27;976.5;;;5.8;85.9
68873;BME280;55907;50.806;12.882;2023-04-19T17:25:28;976.5;;;5.7;86.3